createdAt,value
2018-07-25T00:01:38.158Z,22.22
2018-07-25T00:04:08.026Z,22.14
2018-07-25T00:06:37.747Z,22.17
2018-07-25T00:09:10.038Z,22.11
2018-07-25T00:11:39.972Z,22.07
2018-07-25T00:14:09.745Z,22.05
2018-07-25T00:16:39.507Z,22.02
2018-07-25T00:19:09.258Z,22.02
2018-07-25T00:21:38.961Z,22.04
2018-07-25T00:24:08.694Z,22.01
2018-07-25T00:26:38.626Z,22.03
2018-07-25T00:29:08.300Z,21.97
2018-07-25T00:31:38.038Z,21.91
2018-07-25T00:34:07.702Z,21.89
2018-07-25T00:36:37.419Z,21.92
2018-07-25T00:39:09.036Z,21.89
2018-07-25T00:41:39.093Z,21.76
2018-07-25T00:44:08.906Z,21.74
2018-07-25T00:46:38.601Z,21.61
2018-07-25T00:49:08.282Z,21.58
2018-07-25T00:51:37.965Z,21.51
2018-07-25T00:54:07.723Z,21.38
2018-07-25T00:56:37.512Z,21.26
2018-07-25T00:59:07.241Z,21.14
2018-07-25T01:01:36.942Z,21.03
2018-07-25T01:04:06.633Z,20.98
2018-07-25T01:06:36.357Z,20.94
2018-07-25T01:09:10.326Z,20.93
2018-07-25T01:11:40.035Z,20.95
2018-07-25T01:14:09.788Z,20.95
2018-07-25T01:16:39.485Z,20.92
2018-07-25T01:19:09.172Z,20.88
2018-07-25T01:21:38.899Z,20.81
2018-07-25T01:24:08.676Z,20.71
2018-07-25T01:26:38.389Z,20.67
2018-07-25T01:29:08.057Z,20.66
2018-07-25T01:31:37.769Z,20.62
2018-07-25T01:34:07.476Z,20.62
2018-07-25T01:36:37.147Z,20.59
2018-07-25T01:39:09.890Z,20.60
2018-07-25T01:41:40.228Z,20.60
2018-07-25T01:44:10.185Z,20.61
2018-07-25T01:46:39.852Z,20.63
2018-07-25T01:49:09.529Z,20.66
2018-07-25T01:51:39.188Z,20.75
2018-07-25T01:54:08.501Z,20.71
2018-07-25T01:56:38.286Z,20.67
2018-07-25T01:59:07.981Z,20.67
2018-07-25T02:01:37.629Z,20.70
2018-07-25T02:04:07.531Z,20.66
2018-07-25T02:06:37.176Z,20.59
2018-07-25T02:09:10.894Z,20.53
2018-07-25T02:11:40.550Z,20.52
2018-07-25T02:14:10.210Z,20.48
2018-07-25T02:16:39.875Z,20.46
2018-07-25T02:19:09.533Z,20.43
2018-07-25T02:21:39.372Z,20.44
2018-07-25T02:24:08.996Z,20.52
2018-07-25T02:26:38.693Z,20.57
2018-07-25T02:29:08.525Z,20.55
2018-07-25T02:31:38.182Z,20.55
2018-07-25T02:34:13.149Z,20.41
2018-07-25T02:36:42.929Z,20.30
2018-07-25T02:39:13.996Z,20.20
2018-07-25T02:41:44.669Z,20.14
2018-07-25T02:44:14.896Z,20.24
2018-07-25T02:46:44.649Z,20.50
2018-07-25T02:49:14.391Z,20.44
2018-07-25T02:51:44.074Z,20.51
2018-07-25T02:54:13.706Z,20.61
2018-07-25T02:56:43.474Z,20.55
2018-07-25T02:59:13.170Z,20.44
2018-07-25T03:01:42.916Z,20.25
2018-07-25T03:04:12.605Z,20.12
2018-07-25T03:06:42.314Z,19.99
2018-07-25T03:09:12.068Z,19.97
2018-07-25T03:11:41.750Z,19.85
2018-07-25T03:14:11.429Z,19.76
2018-07-25T03:16:41.219Z,19.67
2018-07-25T03:19:11.078Z,19.65
2018-07-25T03:21:40.851Z,19.53
2018-07-25T03:24:10.561Z,19.46
2018-07-25T03:26:40.347Z,19.40
2018-07-25T03:29:10.048Z,19.35
2018-07-25T03:31:39.885Z,19.27
2018-07-25T03:34:09.496Z,19.25
2018-07-25T03:36:39.143Z,19.19
2018-07-25T03:39:09.185Z,19.19
2018-07-25T03:41:38.856Z,19.19
2018-07-25T03:44:08.552Z,19.27
2018-07-25T03:46:38.245Z,19.34
2018-07-25T03:49:07.947Z,19.34
2018-07-25T03:51:37.589Z,19.39
2018-07-25T03:54:07.402Z,19.36
2018-07-25T03:56:37.136Z,19.39
2018-07-25T03:59:07.209Z,19.39
2018-07-25T04:01:36.933Z,19.32
2018-07-25T04:04:06.619Z,19.36
2018-07-25T04:06:36.267Z,19.34
2018-07-25T04:09:09.291Z,19.35
2018-07-25T04:11:39.027Z,19.29
2018-07-25T04:14:08.721Z,19.29
2018-07-25T04:16:38.302Z,19.28
2018-07-25T04:19:08.039Z,19.28
2018-07-25T04:21:37.801Z,19.26
2018-07-25T04:24:07.534Z,19.33
2018-07-25T04:26:37.481Z,19.45
2018-07-25T04:29:07.199Z,19.48
2018-07-25T04:31:36.896Z,19.56
2018-07-25T04:34:06.786Z,19.63
2018-07-25T04:36:36.569Z,19.73
2018-07-25T04:39:10.889Z,19.73
2018-07-25T04:41:41.229Z,19.77
2018-07-25T04:44:11.360Z,19.77
2018-07-25T04:46:41.394Z,19.77
2018-07-25T04:49:11.073Z,19.77
2018-07-25T04:51:40.882Z,19.82
2018-07-25T04:54:10.653Z,19.83
2018-07-25T04:56:40.478Z,19.84
2018-07-25T04:59:10.220Z,19.91
2018-07-25T05:01:40.049Z,19.96
2018-07-25T05:04:09.824Z,20.03
2018-07-25T05:06:41.269Z,20.14
2018-07-25T05:09:11.720Z,20.33
2018-07-25T05:11:41.394Z,20.61
2018-07-25T05:14:11.193Z,20.61
2018-07-25T05:16:40.921Z,20.68
2018-07-25T05:19:10.603Z,20.86
2018-07-25T05:21:40.313Z,21.03
2018-07-25T05:24:10.067Z,21.11
2018-07-25T05:26:39.861Z,21.30
2018-07-25T05:29:09.523Z,21.42
2018-07-25T05:31:39.299Z,21.53
2018-07-25T05:34:09.141Z,21.58
2018-07-25T05:36:38.893Z,21.70
2018-07-25T05:39:12.252Z,21.69
2018-07-25T05:41:42.716Z,21.77
2018-07-25T05:44:12.544Z,21.86
2018-07-25T05:46:42.414Z,22.00
2018-07-25T05:49:12.973Z,22.07
2018-07-25T05:51:42.669Z,22.28
2018-07-25T05:54:12.436Z,22.45
2018-07-25T05:56:42.205Z,22.59
2018-07-25T05:59:11.861Z,22.59
2018-07-25T06:01:41.563Z,22.64
2018-07-25T06:04:11.226Z,22.86
2018-07-25T06:06:40.977Z,23.03
2018-07-25T06:09:11.424Z,23.03
2018-07-25T06:11:41.094Z,22.83
2018-07-25T06:14:10.844Z,22.74
2018-07-25T06:16:40.654Z,22.52
2018-07-25T06:19:10.806Z,22.63
2018-07-25T06:21:40.512Z,22.62
2018-07-25T06:24:10.283Z,22.81
2018-07-25T06:26:40.019Z,23.14
2018-07-25T06:29:09.698Z,23.05
2018-07-25T06:31:39.441Z,23.23
2018-07-25T06:34:09.181Z,23.57
2018-07-25T06:36:38.913Z,24.09
2018-07-25T06:39:12.627Z,24.12
2018-07-25T06:41:42.666Z,24.23
2018-07-25T06:44:12.430Z,24.76
2018-07-25T06:46:42.349Z,25.03
2018-07-25T06:49:12.085Z,25.17
2018-07-25T06:51:41.938Z,25.28
2018-07-25T06:54:11.703Z,25.56
2018-07-25T06:56:41.473Z,25.84
2018-07-25T06:59:11.153Z,26.45
2018-07-25T07:01:40.944Z,26.88
2018-07-25T07:04:10.680Z,27.23
2018-07-25T07:06:40.637Z,27.11
2018-07-25T07:09:11.350Z,27.08
2018-07-25T07:11:41.081Z,28.10
2018-07-25T07:14:10.819Z,28.50
2018-07-25T07:16:40.507Z,28.76
2018-07-25T07:19:10.236Z,29.09
2018-07-25T07:21:39.938Z,29.55
2018-07-25T07:24:09.753Z,29.88
2018-07-25T07:26:39.382Z,30.23
2018-07-25T07:29:08.797Z,30.41
2018-07-25T07:31:38.526Z,30.74
2018-07-25T07:34:08.382Z,31.93
2018-07-25T07:36:38.140Z,32.18
2018-07-25T07:39:12.345Z,32.28
2018-07-25T07:41:41.748Z,32.57
2018-07-25T07:44:12.118Z,33.56
2018-07-25T07:46:41.901Z,32.77
2018-07-25T07:49:11.693Z,32.69
2018-07-25T07:51:41.487Z,33.42
2018-07-25T07:54:11.277Z,35.48
2018-07-25T07:56:40.975Z,35.85
2018-07-25T07:59:10.740Z,33.96
2018-07-25T08:01:40.598Z,33.91
2018-07-25T08:04:10.361Z,34.10
2018-07-25T08:06:40.678Z,34.24
2018-07-25T08:09:12.805Z,35.35
2018-07-25T08:11:42.621Z,35.30
2018-07-25T08:14:12.527Z,35.28
2018-07-25T08:16:42.329Z,35.67
2018-07-25T08:19:12.590Z,36.41
2018-07-25T08:21:42.394Z,36.18
2018-07-25T08:24:12.200Z,36.79
2018-07-25T08:26:41.911Z,36.67
2018-07-25T08:29:11.269Z,37.05
2018-07-25T08:31:41.149Z,37.16
2018-07-25T08:34:10.876Z,36.06
2018-07-25T08:36:40.666Z,37.22
2018-07-25T08:39:11.084Z,36.46
2018-07-25T08:41:40.988Z,36.86
2018-07-25T08:44:10.855Z,36.91
2018-07-25T08:46:40.688Z,37.84
2018-07-25T08:49:10.485Z,36.80
2018-07-25T08:51:40.249Z,37.68
2018-07-25T08:54:09.950Z,37.47
2018-07-25T08:56:39.641Z,37.21
2018-07-25T08:59:09.422Z,36.22
2018-07-25T09:01:39.597Z,35.95
2018-07-25T09:04:09.358Z,35.61
2018-07-25T09:06:39.077Z,36.25
2018-07-25T09:09:10.762Z,38.04
2018-07-25T09:11:40.492Z,39.22
2018-07-25T09:14:10.432Z,39.44
2018-07-25T09:16:40.265Z,38.75
2018-07-25T09:19:10.007Z,39.16
2018-07-25T09:21:39.804Z,37.11
2018-07-25T09:24:09.946Z,37.31
2018-07-25T09:26:39.845Z,39.77
2018-07-25T09:29:09.700Z,39.34
2018-07-25T09:31:39.429Z,39.22
2018-07-25T09:34:09.364Z,39.19
2018-07-25T09:36:39.057Z,37.86
2018-07-25T09:39:10.468Z,40.69
2018-07-25T09:41:40.341Z,40.75
2018-07-25T09:44:10.282Z,38.94
2018-07-25T09:46:40.256Z,40.83
2018-07-25T09:49:11.103Z,39.26
2018-07-25T09:51:41.040Z,39.77
2018-07-25T09:54:11.198Z,38.93
2018-07-25T09:56:40.918Z,38.88
2018-07-25T09:59:10.753Z,38.33
2018-07-25T10:01:40.538Z,39.31
2018-07-25T10:04:10.461Z,39.51
2018-07-25T10:06:40.296Z,39.98
2018-07-25T10:09:12.702Z,38.07
2018-07-25T10:11:42.786Z,40.14
2018-07-25T10:14:12.650Z,40.58
2018-07-25T10:16:42.521Z,39.28
2018-07-25T10:19:12.594Z,40.53
2018-07-25T10:21:42.372Z,40.46
2018-07-25T10:24:12.093Z,41.14
2018-07-25T10:26:41.809Z,41.45
2018-07-25T10:29:11.738Z,41.89
2018-07-25T10:31:41.435Z,41.16
2018-07-25T10:34:11.730Z,40.23
2018-07-25T10:36:41.522Z,40.60
2018-07-25T10:39:11.568Z,41.48
2018-07-25T10:41:41.258Z,39.23
2018-07-25T10:44:11.075Z,40.75
2018-07-25T10:46:40.926Z,41.41
2018-07-25T10:49:10.665Z,41.59
2018-07-25T10:51:40.425Z,40.89
2018-07-25T10:54:10.295Z,40.78
2018-07-25T10:56:39.950Z,41.21
2018-07-25T10:59:09.788Z,40.45
2018-07-25T11:01:39.588Z,41.33
2018-07-25T11:04:09.446Z,41.22
2018-07-25T11:06:39.249Z,40.58
2018-07-25T11:09:10.424Z,41.86
2018-07-25T11:11:40.182Z,41.16
2018-07-25T11:14:10.022Z,42.08
2018-07-25T11:16:39.784Z,41.28
2018-07-25T11:19:09.637Z,41.09
2018-07-25T11:21:39.449Z,41.40
2018-07-25T11:24:09.560Z,41.77
2018-07-25T11:26:39.456Z,41.04
2018-07-25T11:29:09.270Z,40.12
2018-07-25T11:31:39.106Z,40.65
2018-07-25T11:34:08.772Z,40.71
2018-07-25T11:36:38.518Z,40.95
2018-07-25T11:39:11.834Z,40.55
2018-07-25T11:41:41.597Z,41.37
2018-07-25T11:44:11.469Z,41.98
2018-07-25T11:46:41.207Z,41.21
2018-07-25T11:49:10.870Z,41.43
2018-07-25T11:51:40.772Z,41.11
2018-07-25T11:54:10.445Z,41.09
2018-07-25T11:56:40.191Z,40.71
2018-07-25T11:59:09.913Z,41.64
2018-07-25T12:01:41.743Z,40.51
2018-07-25T12:04:11.596Z,41.05
2018-07-25T12:06:41.582Z,41.07
2018-07-25T12:09:12.202Z,40.97
2018-07-25T12:11:45.713Z,39.53
2018-07-25T12:14:16.869Z,41.03
2018-07-25T12:16:46.790Z,41.39
2018-07-25T12:19:16.553Z,41.35
2018-07-25T12:21:46.453Z,39.84
2018-07-25T12:24:16.193Z,39.58
2018-07-25T12:26:45.891Z,39.71
2018-07-25T12:29:15.569Z,40.22
2018-07-25T12:31:45.329Z,40.39
2018-07-25T12:34:15.072Z,40.69
2018-07-25T12:36:44.818Z,40.93
2018-07-25T12:39:14.521Z,41.27
2018-07-25T12:41:44.205Z,41.99
2018-07-25T12:44:13.926Z,41.47
2018-07-25T12:46:43.728Z,40.91
2018-07-25T12:49:13.447Z,40.88
2018-07-25T12:51:43.143Z,41.80
2018-07-25T12:54:12.922Z,41.22
2018-07-25T12:56:42.554Z,41.39
2018-07-25T12:59:12.276Z,41.45
2018-07-25T13:01:41.990Z,41.81
2018-07-25T13:04:11.817Z,41.84
2018-07-25T13:06:41.580Z,41.66
2018-07-25T13:09:12.462Z,41.80
2018-07-25T13:11:42.305Z,41.33
2018-07-25T13:14:12.078Z,41.45
2018-07-25T13:16:41.890Z,41.42
2018-07-25T13:19:11.677Z,42.13
2018-07-25T13:21:41.484Z,41.25
2018-07-25T13:24:11.360Z,40.00
2018-07-25T13:26:41.123Z,41.66
2018-07-25T13:29:11.979Z,42.48
2018-07-25T13:31:41.709Z,42.78
2018-07-25T13:34:11.484Z,42.62
2018-07-25T13:36:41.239Z,42.79
2018-07-25T13:39:11.145Z,43.35
2018-07-25T13:41:41.562Z,41.51
2018-07-25T13:44:11.280Z,40.89
2018-07-25T13:46:41.080Z,41.91
2018-07-25T13:49:10.813Z,42.20
2018-07-25T13:51:40.600Z,41.58
2018-07-25T13:54:10.436Z,40.49
2018-07-25T13:56:40.249Z,37.57
2018-07-25T13:59:10.257Z,37.85
2018-07-25T14:01:39.976Z,37.81
2018-07-25T14:04:09.733Z,37.98
2018-07-25T14:06:39.461Z,38.62
2018-07-25T14:09:11.254Z,39.10
2018-07-25T14:11:41.343Z,39.10
2018-07-25T14:14:11.436Z,39.51
2018-07-25T14:16:41.230Z,40.04
2018-07-25T14:19:11.147Z,38.62
2018-07-25T14:21:40.974Z,39.33
2018-07-25T14:24:10.736Z,39.35
2018-07-25T14:26:40.519Z,39.97
2018-07-25T14:29:10.657Z,38.73
2018-07-25T14:31:40.329Z,37.43
2018-07-25T14:34:10.095Z,37.92
2018-07-25T14:36:39.794Z,38.97
2018-07-25T14:39:11.622Z,39.27
2018-07-25T14:41:41.958Z,39.34
2018-07-25T14:44:11.786Z,40.38
2018-07-25T14:46:41.627Z,39.77
2018-07-25T14:49:11.320Z,39.96
2018-07-25T14:51:41.272Z,40.45
2018-07-25T14:54:10.678Z,40.50
2018-07-25T14:56:40.406Z,39.57
2018-07-25T14:59:10.417Z,39.71
2018-07-25T15:01:40.120Z,38.14
2018-07-25T15:04:09.961Z,38.95
2018-07-25T15:06:39.679Z,38.75
2018-07-25T15:09:11.068Z,37.64
2018-07-25T15:11:41.230Z,37.12
2018-07-25T15:14:11.279Z,36.40
2018-07-25T15:16:41.076Z,35.54
2018-07-25T15:19:10.785Z,35.83
2018-07-25T15:21:40.252Z,35.96
2018-07-25T15:24:10.019Z,36.30
2018-07-25T15:26:39.860Z,37.10
2018-07-25T15:29:10.066Z,37.29
2018-07-25T15:31:40.023Z,37.61
2018-07-25T15:34:09.689Z,37.74
2018-07-25T15:36:50.501Z,38.60
2018-07-25T15:39:22.800Z,38.23
2018-07-25T15:41:53.594Z,38.44
2018-07-25T15:44:24.763Z,39.56
2018-07-25T15:46:54.695Z,39.83
2018-07-25T15:49:24.439Z,38.99
2018-07-25T15:51:54.221Z,39.46
2018-07-25T15:54:24.360Z,39.77
2018-07-25T15:56:54.530Z,39.25
2018-07-25T15:59:24.284Z,38.94
2018-07-25T16:01:54.025Z,39.02
2018-07-25T16:04:23.407Z,37.93
2018-07-25T16:06:53.227Z,37.94
2018-07-25T16:09:22.961Z,37.55
2018-07-25T16:11:52.702Z,36.83
2018-07-25T16:14:22.473Z,36.68
2018-07-25T16:16:52.233Z,36.84
2018-07-25T16:19:22.059Z,36.46
2018-07-25T16:21:51.882Z,35.85
2018-07-25T16:24:21.695Z,35.64
2018-07-25T16:26:51.411Z,35.44
2018-07-25T16:29:21.217Z,35.26
2018-07-25T16:31:50.970Z,35.17
2018-07-25T16:34:20.805Z,34.97
2018-07-25T16:36:50.188Z,34.90
2018-07-25T16:39:20.026Z,34.95
2018-07-25T16:41:49.705Z,35.01
2018-07-25T16:44:19.607Z,34.73
2018-07-25T16:46:49.361Z,34.53
2018-07-25T16:49:19.126Z,34.51
2018-07-25T16:51:48.874Z,34.44
2018-07-25T16:54:18.603Z,34.37
2018-07-25T16:56:48.384Z,34.44
2018-07-25T16:59:18.043Z,34.32
2018-07-25T17:01:47.471Z,34.08
2018-07-25T17:04:17.174Z,34.12
2018-07-25T17:06:46.980Z,34.35
2018-07-25T17:09:16.713Z,34.11
2018-07-25T17:11:46.437Z,34.18
2018-07-25T17:14:16.218Z,34.12
2018-07-25T17:16:45.885Z,34.03
2018-07-25T17:19:15.629Z,34.21
2018-07-25T17:21:45.347Z,34.19
2018-07-25T17:24:15.021Z,34.41
2018-07-25T17:26:44.778Z,34.19
2018-07-25T17:29:14.446Z,34.22
2018-07-25T17:31:44.147Z,34.20
2018-07-25T17:34:14.012Z,34.21
2018-07-25T17:36:43.832Z,33.92
2018-07-25T17:39:13.600Z,33.93
2018-07-25T17:41:43.357Z,33.58
2018-07-25T17:44:13.249Z,33.62
2018-07-25T17:46:43.040Z,33.63
2018-07-25T17:49:13.765Z,33.42
2018-07-25T17:51:43.706Z,33.33
2018-07-25T17:54:13.464Z,33.11
2018-07-25T17:56:43.339Z,32.80
2018-07-25T17:59:13.033Z,32.62
2018-07-25T18:01:42.874Z,32.62
2018-07-25T18:04:12.679Z,32.36
2018-07-25T18:06:42.422Z,32.24
2018-07-25T18:09:12.138Z,32.14
2018-07-25T18:11:41.935Z,32.07
2018-07-25T18:14:13.319Z,31.82
2018-07-25T18:16:44.571Z,31.71
2018-07-25T18:19:15.729Z,31.70
2018-07-25T18:21:45.682Z,31.57
2018-07-25T18:24:15.537Z,31.30
2018-07-25T18:26:45.243Z,31.27
2018-07-25T18:29:15.144Z,31.12
2018-07-25T18:31:44.898Z,30.97
2018-07-25T18:34:14.936Z,30.96
2018-07-25T18:36:44.764Z,30.75
2018-07-25T18:39:14.498Z,30.49
2018-07-25T18:41:44.525Z,30.37
2018-07-25T18:44:14.931Z,30.29
2018-07-25T18:46:45.389Z,30.25
2018-07-25T18:49:15.864Z,30.24
2018-07-25T18:51:45.665Z,30.07
2018-07-25T18:54:15.720Z,29.92
2018-07-25T18:56:45.269Z,29.85
2018-07-25T18:59:15.265Z,29.64
2018-07-25T19:01:45.096Z,29.45
2018-07-25T19:04:15.054Z,29.39
2018-07-25T19:06:45.173Z,29.31
2018-07-25T19:09:16.974Z,29.28
2018-07-25T19:11:47.344Z,29.18
2018-07-25T19:14:22.457Z,29.21
2018-07-25T19:16:52.196Z,28.97
2018-07-25T19:19:21.979Z,29.06
2018-07-25T19:21:51.913Z,28.87
2018-07-25T19:24:21.805Z,28.83
2018-07-25T19:26:51.799Z,28.86
2018-07-25T19:29:22.275Z,28.84
2018-07-25T19:31:53.401Z,28.53
2018-07-25T19:34:23.480Z,28.38
2018-07-25T19:36:53.191Z,28.30
2018-07-25T19:39:22.946Z,28.23
2018-07-25T19:41:53.063Z,28.25
2018-07-25T19:44:23.097Z,28.21
2018-07-25T19:46:52.948Z,28.35
2018-07-25T19:49:22.612Z,28.40
2018-07-25T19:51:52.703Z,28.15
2018-07-25T19:54:23.102Z,27.97
2018-07-25T19:56:52.937Z,27.77
2018-07-25T19:59:23.490Z,27.57
2018-07-25T20:01:54.032Z,27.58
2018-07-25T20:04:24.458Z,27.82
2018-07-25T20:06:54.181Z,27.98
2018-07-25T20:09:23.999Z,27.99
2018-07-25T20:11:53.989Z,27.86
2018-07-25T20:15:32.722Z,27.72
2018-07-25T20:18:02.530Z,27.61
2018-07-25T20:20:32.531Z,27.72
2018-07-25T20:23:02.599Z,27.72
2018-07-25T20:25:32.544Z,27.47
2018-07-25T20:28:02.737Z,27.25
2018-07-25T20:30:32.460Z,27.17
2018-07-25T20:33:02.370Z,27.09
2018-07-25T20:35:32.395Z,26.95
2018-07-25T20:38:02.155Z,26.79
2018-07-25T20:40:32.080Z,26.69
2018-07-25T20:43:02.039Z,26.72
2018-07-25T20:45:32.150Z,26.74
2018-07-25T20:48:02.173Z,26.61
2018-07-25T20:50:32.186Z,26.52
2018-07-25T20:53:02.255Z,26.59
2018-07-25T20:55:32.295Z,26.64
2018-07-25T20:58:02.078Z,26.60
2018-07-25T21:00:34.166Z,26.42
2018-07-25T21:03:06.577Z,26.21
2018-07-25T21:05:36.637Z,26.13
2018-07-25T21:08:06.365Z,26.22
2018-07-25T21:10:36.181Z,26.02
2018-07-25T21:13:06.091Z,25.83
2018-07-25T21:15:35.880Z,25.59
2018-07-25T21:18:06.225Z,25.46
2018-07-25T21:20:36.101Z,25.44
2018-07-25T21:23:05.900Z,25.36
2018-07-25T21:25:35.952Z,25.23
2018-07-25T21:28:05.925Z,25.09
2018-07-25T21:30:35.651Z,24.99
2018-07-25T21:33:07.500Z,24.91
2018-07-25T21:35:37.612Z,24.81
2018-07-25T21:38:07.862Z,25.09
2018-07-25T21:40:37.818Z,25.09
2018-07-25T21:43:07.903Z,24.94
2018-07-25T21:45:37.656Z,24.87
2018-07-25T21:48:08.510Z,24.88
2018-07-25T21:50:38.288Z,24.91
2018-07-25T21:53:08.062Z,24.93
2018-07-25T21:55:37.885Z,24.80
2018-07-25T21:58:07.691Z,24.59
2018-07-25T22:00:37.465Z,24.54
2018-07-25T22:03:07.193Z,24.42
2018-07-25T22:05:37.078Z,24.31
2018-07-25T22:08:07.005Z,24.30
2018-07-25T22:10:36.925Z,24.22
2018-07-25T22:13:06.797Z,24.22
2018-07-25T22:15:36.545Z,24.24
2018-07-25T22:18:06.513Z,24.16
2018-07-25T22:20:36.335Z,24.06
2018-07-25T22:23:06.118Z,23.96
2018-07-25T22:25:35.473Z,23.85
2018-07-25T22:28:05.514Z,23.81
2018-07-25T22:30:35.329Z,23.71
2018-07-25T22:33:05.319Z,23.59
2018-07-25T22:35:36.305Z,23.52
2018-07-25T22:38:06.496Z,23.44
2018-07-25T22:40:36.303Z,23.44
2018-07-25T22:43:06.194Z,23.36
2018-07-25T22:45:36.880Z,23.48
2018-07-25T22:48:07.238Z,23.44
2018-07-25T22:50:36.993Z,23.38
2018-07-25T22:53:06.992Z,23.41
2018-07-25T22:55:36.782Z,23.53
2018-07-25T22:58:06.934Z,23.66
2018-07-25T23:00:36.861Z,23.54
2018-07-25T23:03:06.554Z,23.43
2018-07-25T23:05:36.370Z,23.31
2018-07-25T23:08:06.217Z,23.29
2018-07-25T23:10:35.945Z,23.29
2018-07-25T23:13:05.657Z,23.29
2018-07-25T23:15:35.415Z,23.28
2018-07-25T23:18:05.169Z,23.24
2018-07-25T23:20:34.823Z,23.19
2018-07-25T23:23:04.706Z,23.25
2018-07-25T23:25:34.433Z,23.20
2018-07-25T23:28:04.184Z,23.14
2018-07-25T23:30:33.933Z,23.10
2018-07-25T23:33:03.702Z,23.21
2018-07-25T23:35:33.450Z,23.32
2018-07-25T23:38:02.838Z,23.46
2018-07-25T23:40:32.545Z,23.55
2018-07-25T23:43:02.441Z,23.66
2018-07-25T23:45:32.197Z,23.68
2018-07-25T23:48:01.859Z,23.64
2018-07-25T23:50:31.484Z,23.62
2018-07-25T23:53:01.358Z,23.58
2018-07-25T23:55:31.089Z,23.47
2018-07-25T23:58:00.788Z,23.45
